Time;durP1;ratioP1;P1;durP2;ratioP2;P2;SDS_P1;SDS_P2;PMS_P1;PMS_P2;Temp;Humidity;BMP_temperature;BMP_pressure;BME280_temperature;BME280_humidity;BME280_pressure;Samples;Min_cycle;Max_cycle;Signal;HPM_P1;HPM_P2
2021/03/05 00:00:40;;;;;;;2.80;1.30;;;8.80;99.90;;;;;;5056238;28;20772;-74
2021/03/05 00:03:08;;;;;;;3.78;1.98;;;8.80;99.90;;;;;;5056012;28;20483;-73
2021/03/05 00:05:36;;;;;;;3.25;1.80;;;8.80;99.90;;;;;;5055047;28;20441;-74
2021/03/05 00:08:04;;;;;;;5.90;2.35;;;8.60;99.90;;;;;;5054517;28;20413;-74
2021/03/05 00:10:33;;;;;;;3.53;1.60;;;8.50;99.90;;;;;;5054896;28;20833;-73
2021/03/05 00:13:00;;;;;;;3.25;2.00;;;8.50;99.90;;;;;;5054523;28;20425;-74
2021/03/05 00:15:30;;;;;;;2.88;1.70;;;8.40;99.90;;;;;;5055234;28;20418;-73
2021/03/05 00:17:57;;;;;;;4.03;2.10;;;8.30;99.90;;;;;;5055086;28;20413;-73
2021/03/05 00:20:25;;;;;;;3.30;2.10;;;8.30;99.90;;;;;;5054739;28;20433;-73
2021/03/05 00:22:53;;;;;;;4.63;2.80;;;8.10;99.90;;;;;;5055528;28;20464;-74
2021/03/05 00:25:20;;;;;;;4.88;2.65;;;8.00;99.90;;;;;;5055294;28;20516;-74
2021/03/05 00:27:47;;;;;;;5.97;3.33;;;7.70;99.90;;;;;;5055641;28;20713;-74
2021/03/05 00:30:15;;;;;;;6.60;3.25;;;7.50;99.90;;;;;;5054635;28;20852;-73
2021/03/05 00:32:42;;;;;;;6.28;4.13;;;7.60;99.90;;;;;;5055536;28;20839;-73
2021/03/05 00:35:11;;;;;;;8.52;5.28;;;7.50;99.90;;;;;;5056257;28;20413;-76
2021/03/05 00:37:38;;;;;;;10.32;5.85;;;7.50;99.90;;;;;;5056759;28;20428;-74
2021/03/05 00:40:07;;;;;;;9.13;5.57;;;7.30;99.90;;;;;;5056625;28;20472;-74
2021/03/05 00:42:34;;;;;;;8.68;5.30;;;7.30;99.90;;;;;;5055991;28;20425;-74
2021/03/05 00:45:03;;;;;;;7.15;4.78;;;7.30;99.90;;;;;;5055880;28;20429;-74
2021/03/05 00:47:31;;;;;;;9.38;6.03;;;7.30;99.90;;;;;;5055732;28;20464;-74
2021/03/05 00:49:58;;;;;;;8.32;4.90;;;7.10;99.90;;;;;;5055045;28;20724;-74
2021/03/05 00:52:24;;;;;;;9.48;5.75;;;7.10;99.90;;;;;;5054200;28;20733;-74
2021/03/05 00:54:51;;;;;;;10.68;5.63;;;7.10;99.90;;;;;;5053745;28;20421;-71
2021/03/05 00:57:18;;;;;;;9.30;5.95;;;6.90;99.90;;;;;;5053581;28;20433;-71
2021/03/05 00:59:44;;;;;;;10.03;6.07;;;6.70;99.90;;;;;;5053123;28;20429;-71
2021/03/05 01:02:12;;;;;;;11.25;7.50;;;6.80;99.90;;;;;;5052764;28;20479;-71
2021/03/05 01:04:38;;;;;;;9.30;6.18;;;6.60;99.90;;;;;;5053584;28;20417;-71
2021/03/05 01:07:05;;;;;;;12.65;6.95;;;6.60;99.90;;;;;;5053938;28;20479;-71
2021/03/05 01:09:32;;;;;;;10.65;6.85;;;6.60;99.90;;;;;;5053471;28;20605;-72
2021/03/05 01:11:58;;;;;;;9.87;7.07;;;6.60;99.90;;;;;;5053274;28;20429;-72
2021/03/05 01:14:25;;;;;;;13.65;7.82;;;6.40;99.90;;;;;;5053772;28;20425;-72
2021/03/05 01:16:51;;;;;;;11.52;7.07;;;6.50;99.90;;;;;;5053628;28;20440;-72
2021/03/05 01:19:20;;;;;;;10.73;7.00;;;6.40;99.90;;;;;;5054070;28;20424;-73
2021/03/05 01:21:46;;;;;;;12.25;6.40;;;6.20;99.90;;;;;;5053717;28;20437;-74
2021/03/05 01:24:13;;;;;;;11.93;6.95;;;6.20;99.90;;;;;;5053655;28;20417;-74
2021/03/05 01:26:40;;;;;;;11.48;6.82;;;6.30;99.90;;;;;;5054360;28;20845;-73
2021/03/05 01:29:08;;;;;;;15.20;8.10;;;6.40;99.90;;;;;;5054514;28;20850;-73
2021/03/05 01:31:34;;;;;;;13.15;7.80;;;6.30;99.90;;;;;;5053727;28;20426;-73
2021/03/05 01:34:01;;;;;;;12.30;7.00;;;6.30;99.90;;;;;;5054826;28;20429;-73
2021/03/05 01:36:28;;;;;;;13.90;6.97;;;6.20;99.90;;;;;;5055133;28;20421;-73
2021/03/05 01:38:55;;;;;;;13.70;8.45;;;6.00;99.90;;;;;;5055017;28;20844;-73
2021/03/05 01:41:22;;;;;;;13.10;6.45;;;6.10;99.90;;;;;;5054992;28;20864;-73
2021/03/05 01:43:48;;;;;;;12.18;7.70;;;5.70;99.90;;;;;;5054350;28;20417;-73
2021/03/05 01:46:17;;;;;;;12.20;6.90;;;5.60;99.90;;;;;;5054295;28;20429;-73
2021/03/05 01:48:44;;;;;;;12.15;6.88;;;5.70;99.90;;;;;;5053999;28;20428;-74
2021/03/05 01:51:13;;;;;;;12.50;7.13;;;5.90;99.90;;;;;;5054953;28;20585;-73
2021/03/05 01:53:41;;;;;;;13.95;7.15;;;5.80;99.90;;;;;;5055001;28;20448;-73
2021/03/05 01:56:09;;;;;;;12.13;6.95;;;5.60;99.90;;;;;;5054526;28;20429;-73
2021/03/05 01:58:36;;;;;;;13.65;7.53;;;5.60;99.90;;;;;;5054562;28;20741;-73
2021/03/05 02:01:07;;;;;;;15.05;7.75;;;5.60;99.90;;;;;;5054121;28;20915;-74
2021/03/05 02:03:34;;;;;;;12.85;6.90;;;5.70;99.90;;;;;;5053900;28;20433;-73
2021/03/05 02:06:02;;;;;;;16.75;7.97;;;5.70;99.90;;;;;;5054881;28;20511;-73
2021/03/05 02:08:29;;;;;;;14.65;8.45;;;5.70;99.90;;;;;;5053186;28;20440;-73
2021/03/05 02:10:56;;;;;;;14.75;8.15;;;5.80;99.90;;;;;;5053576;28;20429;-73
2021/03/05 02:13:23;;;;;;;16.25;8.38;;;5.80;99.90;;;;;;5053940;28;20486;-73
2021/03/05 02:15:50;;;;;;;15.52;8.43;;;5.80;99.90;;;;;;5053944;28;20868;-73
2021/03/05 02:18:25;;;;;;;17.80;7.80;;;5.50;99.90;;;;;;5054537;28;20428;-72
2021/03/05 02:21:06;;;;;;;13.95;7.80;;;5.50;99.90;;;;;;5052038;28;20441;-72
2021/03/05 02:24:14;;;;;;;15.90;7.95;;;5.60;99.90;;;;;;5052320;28;20558;-73
2021/03/05 02:27:20;;;;;;;14.73;7.03;;;5.60;99.90;;;;;;4971866;28;20763;-73
2021/03/05 02:30:22;;;;;;;15.63;8.80;;;5.50;99.90;;;;;;5052009;28;20432;-72
2021/03/05 02:32:54;;;;;;;13.57;7.38;;;5.40;99.90;;;;;;5052699;28;20475;-72
2021/03/05 02:35:24;;;;;;;13.05;7.07;;;5.50;99.90;;;;;;5052345;28;20870;-72
2021/03/05 02:37:53;;;;;;;11.68;6.57;;;5.60;99.90;;;;;;5053097;28;20425;-72
2021/03/05 02:40:26;;;;;;;13.98;7.40;;;5.70;99.90;;;;;;5052718;28;20425;-72
2021/03/05 02:42:57;;;;;;;12.13;6.60;;;5.80;99.90;;;;;;5054000;28;20421;-72
2021/03/05 02:45:27;;;;;;;11.60;6.68;;;5.80;99.90;;;;;;5054309;28;20421;-72
2021/03/05 02:47:59;;;;;;;12.85;5.97;;;5.70;99.90;;;;;;5053235;28;20836;-72
2021/03/05 02:50:28;;;;;;;13.30;6.30;;;5.60;99.90;;;;;;5054112;28;20417;-72
2021/03/05 02:52:59;;;;;;;13.32;6.45;;;5.60;99.90;;;;;;5053923;28;20421;-72
2021/03/05 02:55:28;;;;;;;10.55;6.13;;;5.50;99.90;;;;;;5054142;28;20849;-72
2021/03/05 02:57:57;;;;;;;14.15;6.88;;;5.50;99.90;;;;;;5054555;28;20728;-72
2021/03/05 03:00:25;;;;;;;12.85;7.00;;;5.30;99.90;;;;;;5053648;28;20852;-72
2021/03/05 03:02:54;;;;;;;12.38;6.75;;;5.30;99.90;;;;;;5053429;28;20418;-72
2021/03/05 03:05:22;;;;;;;12.15;6.88;;;5.30;99.90;;;;;;5053239;28;20851;-72
2021/03/05 03:07:49;;;;;;;12.50;6.63;;;5.30;99.90;;;;;;5052553;28;20847;-71
2021/03/05 03:10:19;;;;;;;11.77;6.47;;;5.40;99.90;;;;;;5052446;28;20768;-71
2021/03/05 03:12:46;;;;;;;10.00;5.60;;;5.40;99.90;;;;;;5052287;28;20669;-73
2021/03/05 03:15:15;;;;;;;10.10;5.45;;;5.30;99.90;;;;;;5052640;28;20421;-73
2021/03/05 03:17:45;;;;;;;8.80;5.20;;;5.40;99.90;;;;;;5054434;28;20429;-73
2021/03/05 03:20:18;;;;;;;11.82;6.50;;;5.50;99.90;;;;;;5057084;28;20441;-71
2021/03/05 03:22:46;;;;;;;11.02;5.78;;;5.60;99.90;;;;;;5057597;28;20428;-73
2021/03/05 03:25:14;;;;;;;8.45;4.20;;;5.70;99.90;;;;;;5057642;28;20425;-73
2021/03/05 03:27:41;;;;;;;10.75;5.25;;;5.60;99.90;;;;;;5057735;28;20420;-73
2021/03/05 03:30:10;;;;;;;9.55;5.93;;;5.60;99.90;;;;;;5058123;28;20424;-73
2021/03/05 03:32:39;;;;;;;8.70;4.80;;;5.40;99.90;;;;;;5057358;28;20409;-73
2021/03/05 03:35:08;;;;;;;9.25;5.32;;;5.50;99.90;;;;;;5058251;28;20431;-74
2021/03/05 03:37:36;;;;;;;12.00;6.10;;;5.60;99.90;;;;;;5058082;28;20702;-73
2021/03/05 03:40:06;;;;;;;13.50;6.15;;;5.70;99.90;;;;;;5058004;28;20425;-73
2021/03/05 03:42:32;;;;;;;8.93;5.53;;;5.70;99.90;;;;;;5057517;28;20503;-73
2021/03/05 03:44:59;;;;;;;11.20;6.40;;;5.70;99.90;;;;;;5057740;28;20421;-73
2021/03/05 03:47:26;;;;;;;10.23;5.60;;;5.70;99.90;;;;;;5057173;28;20428;-73
2021/03/05 03:49:57;;;;;;;9.93;5.25;;;5.70;99.90;;;;;;5057570;28;20421;-73
2021/03/05 03:52:28;;;;;;;9.93;5.80;;;5.60;99.90;;;;;;5056709;28;20900;-73
2021/03/05 03:54:56;;;;;;;11.17;5.43;;;5.40;99.90;;;;;;5055988;28;20428;-74
2021/03/05 03:57:24;;;;;;;10.03;5.37;;;5.50;99.90;;;;;;5056503;28;20433;-73
2021/03/05 03:59:52;;;;;;;8.93;5.23;;;5.50;99.90;;;;;;5056811;28;20475;-73
2021/03/05 04:02:20;;;;;;;10.18;5.43;;;5.40;99.90;;;;;;5057020;28;20682;-73
2021/03/05 04:04:47;;;;;;;8.63;4.90;;;5.50;99.90;;;;;;5056959;28;20421;-73
2021/03/05 04:07:15;;;;;;;6.22;3.55;;;5.50;99.90;;;;;;5056329;28;20467;-73
2021/03/05 04:09:42;;;;;;;5.32;3.10;;;5.60;99.90;;;;;;5057151;28;20432;-73
2021/03/05 04:12:10;;;;;;;6.40;3.35;;;5.60;99.90;;;;;;5056911;28;20429;-73
2021/03/05 04:14:37;;;;;;;5.97;3.80;;;5.40;99.90;;;;;;5057560;28;20457;-73
2021/03/05 04:17:03;;;;;;;6.55;3.80;;;5.50;99.90;;;;;;5057037;28;20429;-73
2021/03/05 04:19:30;;;;;;;4.97;2.58;;;5.60;99.90;;;;;;5057118;28;20790;-74
2021/03/05 04:21:58;;;;;;;5.43;2.97;;;5.40;99.90;;;;;;5056366;28;20444;-73
2021/03/05 04:24:25;;;;;;;5.97;3.20;;;5.40;99.90;;;;;;5056613;28;20421;-73
2021/03/05 04:26:51;;;;;;;6.45;2.65;;;5.50;99.90;;;;;;5056409;28;20440;-73
2021/03/05 04:29:19;;;;;;;6.45;2.55;;;5.20;99.90;;;;;;5056264;28;20837;-73
2021/03/05 04:31:45;;;;;;;4.80;3.03;;;5.20;99.90;;;;;;5056098;28;20448;-73
2021/03/05 04:34:12;;;;;;;5.55;2.90;;;5.20;99.90;;;;;;5057378;28;20421;-73
2021/03/05 04:36:39;;;;;;;6.63;3.47;;;5.20;99.90;;;;;;5057526;28;20433;-73
2021/03/05 04:39:06;;;;;;;5.33;2.50;;;5.20;99.90;;;;;;5057625;28;20464;-73
2021/03/05 04:41:32;;;;;;;4.80;2.37;;;5.30;99.90;;;;;;5058172;28;20499;-72
2021/03/05 04:44:00;;;;;;;5.15;2.60;;;5.30;99.90;;;;;;5058148;28;20463;-74
2021/03/05 04:46:28;;;;;;;6.00;2.70;;;5.30;99.90;;;;;;5058630;28;20868;-73
2021/03/05 04:48:54;;;;;;;5.55;2.97;;;5.40;99.90;;;;;;5058174;28;20426;-73
2021/03/05 04:51:21;;;;;;;5.25;2.80;;;5.60;99.90;;;;;;5056684;28;20431;-71
2021/03/05 04:53:49;;;;;;;5.15;3.03;;;5.60;99.90;;;;;;5057058;28;20433;-72
2021/03/05 04:56:16;;;;;;;4.82;2.47;;;5.50;99.90;;;;;;5056366;28;20433;-72
2021/03/05 04:58:43;;;;;;;5.45;2.80;;;5.40;99.90;;;;;;5055406;28;20471;-72
2021/03/05 05:01:09;;;;;;;5.45;3.05;;;5.40;99.90;;;;;;5054380;28;20487;-72
2021/03/05 05:03:37;;;;;;;6.45;2.38;;;5.40;99.90;;;;;;5055485;28;20421;-72
2021/03/05 05:06:04;;;;;;;4.30;2.20;;;5.40;99.90;;;;;;5056200;28;20425;-72
2021/03/05 05:08:30;;;;;;;4.63;2.60;;;5.30;99.90;;;;;;5055530;28;20479;-72
2021/03/05 05:10:57;;;;;;;5.20;2.70;;;5.40;99.90;;;;;;5055726;28;20435;-72
2021/03/05 05:13:24;;;;;;;6.60;3.17;;;5.30;99.90;;;;;;5054179;28;20421;-72
2021/03/05 05:15:50;;;;;;;4.53;2.57;;;5.20;99.90;;;;;;5054260;28;20429;-72
2021/03/05 05:18:17;;;;;;;5.32;2.75;;;5.30;99.90;;;;;;5054180;28;20436;-72
2021/03/05 05:20:45;;;;;;;4.68;2.45;;;5.20;99.90;;;;;;5052833;28;20448;-72
2021/03/05 05:23:11;;;;;;;4.00;2.30;;;5.30;99.90;;;;;;5053653;28;20479;-73
2021/03/05 05:25:38;;;;;;;4.38;2.28;;;5.30;99.90;;;;;;5054052;28;20433;-73
2021/03/05 05:28:05;;;;;;;6.68;2.22;;;5.30;99.90;;;;;;5053910;28;20414;-71
2021/03/05 05:30:32;;;;;;;4.47;2.22;;;5.30;99.90;;;;;;5053677;28;20434;-72
2021/03/05 05:32:58;;;;;;;5.75;2.70;;;5.30;99.90;;;;;;5054018;28;20821;-72
2021/03/05 05:35:25;;;;;;;5.90;2.65;;;5.30;99.90;;;;;;5054036;28;20413;-72
2021/03/05 05:37:52;;;;;;;7.30;3.05;;;5.30;99.90;;;;;;5054334;28;20483;-72
2021/03/05 05:40:19;;;;;;;3.88;2.33;;;5.20;99.90;;;;;;5054665;28;20444;-72
2021/03/05 05:42:48;;;;;;;5.63;2.67;;;5.20;99.90;;;;;;5054629;28;20429;-72
2021/03/05 05:45:15;;;;;;;4.88;1.70;;;5.30;99.90;;;;;;5054626;28;20437;-72
2021/03/05 05:47:43;;;;;;;4.57;2.10;;;5.30;99.90;;;;;;5054051;28;20421;-72
2021/03/05 05:50:11;;;;;;;4.60;2.10;;;5.40;99.90;;;;;;5054751;28;20417;-73
2021/03/05 05:52:37;;;;;;;5.72;2.65;;;5.30;99.90;;;;;;5054551;28;20499;-72
2021/03/05 05:55:07;;;;;;;3.55;1.80;;;5.40;99.90;;;;;;5054417;28;20436;-72
2021/03/05 05:57:37;;;;;;;5.40;2.20;;;5.30;99.90;;;;;;5054600;28;20421;-72
2021/03/05 06:00:08;;;;;;;4.87;2.07;;;5.30;99.90;;;;;;5054406;28;20444;-71
2021/03/05 06:02:36;;;;;;;5.65;2.30;;;5.20;99.90;;;;;;5054176;28;20464;-72
2021/03/05 06:05:05;;;;;;;4.30;2.30;;;5.20;99.90;;;;;;5054118;28;20448;-71
2021/03/05 06:07:33;;;;;;;4.40;2.30;;;5.20;99.90;;;;;;5053430;28;20432;-72
2021/03/05 06:10:00;;;;;;;5.00;2.70;;;5.20;99.90;;;;;;5054720;28;20728;-72
2021/03/05 06:12:27;;;;;;;6.30;2.83;;;5.30;99.90;;;;;;5053790;28;20425;-71
2021/03/05 06:14:54;;;;;;;4.80;2.10;;;5.50;99.90;;;;;;5052570;28;20487;-71
2021/03/05 06:17:21;;;;;;;5.10;2.70;;;5.40;99.90;;;;;;5054168;28;20562;-72
2021/03/05 06:19:56;;;;;;;3.88;2.08;;;5.40;99.90;;;;;;5054166;28;20421;-71
2021/03/05 06:22:23;;;;;;;5.50;2.85;;;5.30;99.90;;;;;;5053958;28;20429;-72
2021/03/05 06:24:50;;;;;;;4.45;2.55;;;5.40;99.90;;;;;;5053156;28;20428;-73
2021/03/05 06:27:18;;;;;;;5.80;2.70;;;5.40;99.90;;;;;;5052252;28;20437;-73
2021/03/05 06:29:47;;;;;;;5.15;2.22;;;5.40;99.90;;;;;;5051148;28;20429;-72
2021/03/05 06:32:15;;;;;;;6.55;2.60;;;5.30;99.90;;;;;;5051673;28;20856;-73
2021/03/05 06:34:47;;;;;;;6.93;2.58;;;5.20;99.90;;;;;;5053976;28;20432;-72
2021/03/05 06:37:16;;;;;;;6.18;2.60;;;5.00;99.90;;;;;;5053294;28;20444;-72
2021/03/05 06:39:43;;;;;;;4.80;1.88;;;5.00;99.90;;;;;;5053199;28;20429;-73
2021/03/05 06:42:11;;;;;;;6.72;2.58;;;5.10;99.90;;;;;;5040891;28;20443;-73
2021/03/05 06:44:39;;;;;;;6.75;2.95;;;5.00;99.90;;;;;;5044451;28;20460;-73
2021/03/05 06:47:11;;;;;;;4.97;2.42;;;5.00;99.90;;;;;;5050613;28;20440;-72
2021/03/05 06:49:38;;;;;;;5.40;2.53;;;4.90;99.90;;;;;;5051336;28;21000;-73
2021/03/05 06:52:06;;;;;;;4.82;1.70;;;5.00;99.90;;;;;;5051172;28;20769;-72
2021/03/05 06:54:34;;;;;;;6.43;2.70;;;5.00;99.90;;;;;;5053928;28;20909;-73
2021/03/05 06:57:01;;;;;;;5.60;2.28;;;4.90;99.90;;;;;;5055729;28;20437;-73
2021/03/05 06:59:35;;;;;;;5.50;2.37;;;5.00;99.90;;;;;;5055664;28;20436;-73
2021/03/05 07:02:03;;;;;;;5.18;2.40;;;5.10;99.90;;;;;;5055187;28;20468;-73
2021/03/05 07:04:33;;;;;;;4.32;1.92;;;5.20;99.90;;;;;;5054666;28;20551;-74
2021/03/05 07:07:01;;;;;;;5.15;1.67;;;5.30;99.90;;;;;;5055974;28;20432;-74
2021/03/05 07:09:30;;;;;;;4.15;1.73;;;5.30;99.90;;;;;;5054348;28;20450;-74
2021/03/05 07:11:57;;;;;;;5.32;2.50;;;5.40;99.90;;;;;;5053615;28;20425;-75
2021/03/05 07:14:29;;;;;;;4.40;2.22;;;5.40;99.90;;;;;;5054090;28;20482;-74
2021/03/05 07:20:19;;;;;;;6.40;2.67;;;5.10;99.90;;;;;;4961158;28;20426;-75
2021/03/05 07:22:55;;;;;;;6.18;2.13;;;5.20;99.90;;;;;;5054540;28;20852;-75
2021/03/05 07:25:23;;;;;;;3.70;2.10;;;5.40;99.90;;;;;;5055019;28;20868;-75
2021/03/05 07:27:51;;;;;;;5.35;2.10;;;5.40;99.90;;;;;;5053520;28;20448;-74
2021/03/05 07:30:22;;;;;;;5.15;2.00;;;5.40;99.90;;;;;;5050513;28;21004;-75
2021/03/05 07:32:51;;;;;;;5.07;2.20;;;5.40;99.90;;;;;;5053581;28;20737;-75
2021/03/05 07:35:24;;;;;;;5.65;2.17;;;5.30;99.90;;;;;;5051978;28;20433;-75
2021/03/05 07:37:54;;;;;;;4.73;2.20;;;5.30;99.90;;;;;;5045241;28;20433;-75
2021/03/05 07:40:22;;;;;;;5.72;2.63;;;5.30;99.90;;;;;;5052079;28;20433;-75
2021/03/05 07:42:50;;;;;;;11.70;7.20;;;5.50;99.90;;;;;;5050885;28;20453;-75
2021/03/05 07:45:20;;;;;;;5.25;2.10;;;5.40;99.90;;;;;;5047952;28;20427;-75
2021/03/05 07:47:48;;;;;;;6.47;2.40;;;5.60;99.90;;;;;;5048732;28;20421;-74
2021/03/05 07:50:24;;;;;;;6.13;2.50;;;5.70;99.90;;;;;;5046948;28;20932;-74
2021/03/05 07:52:51;;;;;;;6.15;2.40;;;5.80;99.90;;;;;;5037985;28;20479;-73
2021/03/05 07:55:35;;;;;;;4.45;2.00;;;5.70;99.90;;;;;;5052540;28;20429;-73
2021/03/05 07:58:02;;;;;;;6.00;2.50;;;5.60;99.90;;;;;;5043793;28;20736;-74
2021/03/05 08:00:47;;;;;;;5.47;2.20;;;5.40;99.90;;;;;;5052683;28;20459;-73
2021/03/05 08:03:15;;;;;;;5.23;2.30;;;5.50;99.90;;;;;;5049171;28;20456;-74
2021/03/05 08:05:46;;;;;;;4.25;2.10;;;5.60;99.90;;;;;;5053134;28;20433;-73
2021/03/05 08:08:18;;;;;;;5.28;1.95;;;5.80;99.90;;;;;;5053328;28;20429;-71
2021/03/05 08:10:48;;;;;;;4.63;2.00;;;5.90;99.90;;;;;;5054485;28;20856;-72
2021/03/05 08:16:37;;;;;;;5.60;2.38;;;5.60;99.90;;;;;;5028636;28;20459;-71
2021/03/05 08:19:47;;;;;;;6.25;2.20;;;5.60;99.90;;;;;;5039387;28;20503;-71
2021/03/05 08:22:16;;;;;;;6.97;2.60;;;5.70;99.90;;;;;;5053187;28;20846;-71
2021/03/05 08:24:42;;;;;;;6.10;2.30;;;5.70;99.90;;;;;;5052350;28;20417;-72
2021/03/05 08:27:32;;;;;;;4.13;2.40;;;5.90;99.90;;;;;;5052222;28;20433;-72
2021/03/05 08:30:05;;;;;;;4.28;1.52;;;6.00;99.90;;;;;;5052138;28;20432;-72
2021/03/05 08:32:58;;;;;;;5.25;1.80;;;6.00;99.90;;;;;;5052230;28;20730;-73
2021/03/05 08:35:44;;;;;;;5.22;2.10;;;6.20;99.90;;;;;;5033680;28;20877;-72
2021/03/05 08:38:14;;;;;;;5.85;2.05;;;6.00;99.90;;;;;;5046718;28;20436;-72
2021/03/05 08:40:51;;;;;;;7.60;2.30;;;5.70;99.90;;;;;;5053799;28;20503;-72
2021/03/05 08:43:25;;;;;;;3.70;1.70;;;5.60;99.90;;;;;;5053657;28;20756;-72
2021/03/05 08:45:54;;;;;;;5.35;1.98;;;5.40;99.90;;;;;;5052114;28;20503;-73
2021/03/05 08:48:38;;;;;;;4.38;1.80;;;5.40;99.90;;;;;;5052197;28;20879;-73
2021/03/05 08:51:12;;;;;;;6.28;2.58;;;5.60;99.90;;;;;;5050996;28;20430;-73
2021/03/05 08:53:42;;;;;;;5.50;2.10;;;5.60;99.90;;;;;;5050274;28;20429;-73
2021/03/05 08:56:10;;;;;;;4.55;2.03;;;5.60;99.90;;;;;;5052128;28;20436;-74
2021/03/05 08:58:37;;;;;;;9.50;4.50;;;5.60;99.90;;;;;;5052493;28;20652;-74
2021/03/05 09:01:03;;;;;;;4.47;1.80;;;5.80;99.90;;;;;;5051799;28;20476;-73
2021/03/05 09:03:30;;;;;;;5.55;2.10;;;6.00;99.90;;;;;;5044537;28;20423;-73
2021/03/05 09:05:57;;;;;;;3.00;1.60;;;6.00;99.90;;;;;;5051991;28;20437;-73
2021/03/05 09:08:25;;;;;;;4.57;1.48;;;6.10;99.90;;;;;;5049978;28;21078;-72
2021/03/05 09:10:55;;;;;;;4.25;1.55;;;6.00;99.90;;;;;;5047330;28;20441;-71
2021/03/05 09:13:24;;;;;;;3.80;1.40;;;6.10;99.90;;;;;;5034471;28;20436;-72
2021/03/05 09:15:53;;;;;;;4.90;1.73;;;6.30;99.90;;;;;;5053646;28;20867;-72
2021/03/05 09:18:22;;;;;;;4.60;1.70;;;6.00;99.90;;;;;;5052168;28;20444;-72
2021/03/05 09:20:50;;;;;;;3.78;1.38;;;5.70;99.90;;;;;;5051812;28;20496;-71
2021/03/05 09:23:29;;;;;;;6.18;2.25;;;5.80;99.90;;;;;;5049344;28;20516;-75
2021/03/05 09:26:00;;;;;;;3.70;1.77;;;6.00;99.90;;;;;;5052868;28;20816;-72
2021/03/05 09:28:28;;;;;;;4.80;2.00;;;6.00;99.90;;;;;;5051970;28;20461;-72
2021/03/05 09:30:56;;;;;;;4.97;1.63;;;6.00;99.90;;;;;;5044905;28;20444;-73
2021/03/05 09:33:34;;;;;;;4.43;1.80;;;5.80;99.90;;;;;;5050816;28;20441;-72
2021/03/05 09:36:03;;;;;;;5.75;1.63;;;5.90;99.90;;;;;;5050532;28;20441;-73
2021/03/05 09:38:30;;;;;;;3.70;1.40;;;6.10;99.90;;;;;;5045253;28;20422;-73
2021/03/05 09:41:11;;;;;;;4.35;1.60;;;6.50;99.90;;;;;;5049931;28;20437;-73
2021/03/05 09:43:37;;;;;;;3.47;1.40;;;6.70;99.90;;;;;;5046820;28;20428;-70
2021/03/05 09:46:19;;;;;;;2.75;1.60;;;6.60;99.90;;;;;;5044173;28;20487;-71
2021/03/05 09:48:46;;;;;;;3.40;1.40;;;6.60;99.90;;;;;;5041563;28;20433;-71
2021/03/05 09:51:15;;;;;;;3.33;1.75;;;6.50;99.90;;;;;;5049662;28;20867;-71
2021/03/05 09:53:52;;;;;;;3.47;1.48;;;6.40;99.90;;;;;;5049912;28;20421;-71
2021/03/05 09:56:24;;;;;;;3.70;1.50;;;6.60;99.90;;;;;;5048612;28;20443;-71
2021/03/05 09:58:55;;;;;;;3.20;1.30;;;6.70;99.90;;;;;;5047792;28;20515;-71
2021/03/05 10:01:22;;;;;;;4.72;1.73;;;6.70;99.90;;;;;;5052282;28;20433;-71
2021/03/05 10:03:57;;;;;;;3.30;1.60;;;6.50;99.90;;;;;;5051508;28;20441;-73
2021/03/05 10:06:24;;;;;;;5.70;1.67;;;6.50;99.90;;;;;;5050861;28;20476;-72
2021/03/05 10:09:01;;;;;;;4.32;1.40;;;6.20;99.90;;;;;;5049948;28;20860;-71
2021/03/05 10:11:35;;;;;;;4.05;1.60;;;6.10;99.90;;;;;;5050635;28;20444;-72
2021/03/05 10:14:02;;;;;;;5.65;1.70;;;6.00;99.90;;;;;;5048868;28;20864;-72
2021/03/05 10:16:30;;;;;;;2.95;1.20;;;6.30;99.90;;;;;;5051419;28;20471;-72
2021/03/05 10:19:01;;;;;;;4.22;1.50;;;6.40;99.90;;;;;;5051684;28;20590;-75
2021/03/05 10:21:31;;;;;;;4.18;2.10;;;6.60;99.90;;;;;;5037316;28;20546;-76
2021/03/05 10:23:58;;;;;;;3.90;1.48;;;6.90;99.90;;;;;;5043322;28;20437;-76
2021/03/05 10:26:27;;;;;;;3.70;1.40;;;7.10;99.90;;;;;;5051785;28;20429;-75
2021/03/05 10:28:59;;;;;;;3.78;1.33;;;7.00;99.90;;;;;;5050753;28;20524;-75
2021/03/05 10:31:47;;;;;;;3.20;1.50;;;7.30;99.90;;;;;;5033013;28;20422;-76
2021/03/05 10:34:34;;;;;;;4.20;1.35;;;7.30;99.90;;;;;;5043531;28;20515;-76
2021/03/05 10:37:03;;;;;;;3.03;1.20;;;7.50;99.90;;;;;;5046147;28;20429;-76
2021/03/05 10:39:34;;;;;;;2.70;1.37;;;7.70;99.90;;;;;;5051121;28;20444;-77
2021/03/05 10:42:01;;;;;;;3.22;1.50;;;7.90;99.90;;;;;;5050416;28;20490;-76
2021/03/05 10:44:32;;;;;;;5.30;1.65;;;7.80;99.90;;;;;;5047915;28;20883;-76
2021/03/05 10:47:00;;;;;;;4.30;1.90;;;7.50;99.90;;;;;;5046570;28;20752;-76
2021/03/05 10:49:30;;;;;;;2.57;1.23;;;7.10;99.90;;;;;;5044317;28;20494;-77
2021/03/05 10:51:59;;;;;;;3.70;1.40;;;7.10;99.90;;;;;;5048205;28;20456;-76
2021/03/05 10:54:26;;;;;;;3.80;1.50;;;7.00;99.90;;;;;;5045865;28;20772;-77
2021/03/05 10:56:54;;;;;;;3.97;1.60;;;6.70;99.90;;;;;;5030960;28;20879;-77
2021/03/05 10:59:24;;;;;;;4.97;2.70;;;6.50;99.90;;;;;;5046569;28;20487;-77
2021/03/05 11:01:53;;;;;;;4.65;1.85;;;6.70;99.90;;;;;;5049922;28;20436;-78
2021/03/05 11:04:22;;;;;;;5.30;1.70;;;6.80;99.90;;;;;;5048139;28;20444;-77
2021/03/05 11:06:54;;;;;;;3.00;1.20;;;6.90;99.90;;;;;;5050135;28;20436;-77
2021/03/05 11:09:24;;;;;;;3.00;1.80;;;7.00;99.90;;;;;;5049712;28;20429;-77
2021/03/05 11:11:51;;;;;;;4.10;1.67;;;7.00;99.90;;;;;;5046932;28;20966;-77
2021/03/05 11:14:18;;;;;;;4.68;1.80;;;7.00;99.90;;;;;;5049508;28;20452;-77
2021/03/05 11:16:45;;;;;;;3.22;1.52;;;6.80;99.90;;;;;;5049410;28;20879;-78
2021/03/05 11:19:12;;;;;;;8.05;4.20;;;6.80;99.90;;;;;;5047933;28;20467;-77
2021/03/05 11:21:41;;;;;;;3.90;1.48;;;6.90;99.90;;;;;;5046641;28;20431;-77
2021/03/05 11:24:10;;;;;;;3.97;1.40;;;7.00;99.90;;;;;;5048853;28;20937;-77
2021/03/05 11:26:37;;;;;;;5.53;1.90;;;6.90;99.90;;;;;;5052000;28;20425;-78
2021/03/05 11:29:07;;;;;;;3.47;1.67;;;6.90;99.90;;;;;;5049296;28;20819;-77
2021/03/05 11:31:34;;;;;;;2.92;1.50;;;7.00;99.90;;;;;;5051226;28;20970;-77
2021/03/05 11:34:01;;;;;;;2.65;1.42;;;7.00;99.90;;;;;;5050779;28;20460;-79
2021/03/05 11:36:29;;;;;;;3.83;1.60;;;6.80;99.90;;;;;;5052572;28;20856;-76
2021/03/05 11:38:55;;;;;;;4.70;1.80;;;6.60;99.90;;;;;;5050536;28;20516;-75
2021/03/05 11:41:22;;;;;;;4.50;1.70;;;6.40;99.90;;;;;;5052130;28;20437;-76
2021/03/05 11:43:50;;;;;;;4.60;1.60;;;6.50;99.90;;;;;;5055619;28;20433;-77
2021/03/05 11:46:19;;;;;;;2.90;1.67;;;6.40;99.90;;;;;;5056608;28;20436;-77
2021/03/05 11:48:45;;;;;;;3.47;1.50;;;6.60;99.90;;;;;;5055096;28;20479;-77
2021/03/05 11:51:13;;;;;;;2.93;1.70;;;6.70;99.90;;;;;;5054920;28;20459;-77
2021/03/05 11:53:40;;;;;;;3.53;1.63;;;6.70;99.90;;;;;;5052818;28;20425;-77
2021/03/05 11:56:08;;;;;;;4.20;1.70;;;6.70;99.90;;;;;;5052671;28;20740;-77
2021/03/05 11:58:35;;;;;;;3.20;1.75;;;6.90;99.90;;;;;;5052354;28;20852;-76
2021/03/05 12:01:02;;;;;;;4.70;1.70;;;7.00;99.90;;;;;;5052276;28;20425;-75
2021/03/05 12:03:31;;;;;;;3.40;1.70;;;7.00;99.90;;;;;;5050720;28;20868;-75
2021/03/05 12:06:04;;;;;;;5.43;1.93;;;7.10;99.90;;;;;;5050727;28;20498;-76
2021/03/05 12:08:31;;;;;;;4.20;1.60;;;7.00;99.90;;;;;;5055022;28;20433;-76
2021/03/05 12:10:58;;;;;;;3.60;1.80;;;6.90;99.90;;;;;;5052963;28;20440;-77
2021/03/05 12:13:25;;;;;;;5.53;1.97;;;6.90;99.90;;;;;;5051935;28;20429;-79
2021/03/05 12:15:54;;;;;;;3.63;1.50;;;7.00;99.90;;;;;;5048128;28;20442;-75
2021/03/05 12:18:21;;;;;;;5.60;1.40;;;7.00;99.90;;;;;;5040459;28;20521;-79
2021/03/05 12:20:48;;;;;;;3.60;1.73;;;6.80;99.90;;;;;;5053892;28;20440;-76
2021/03/05 12:23:15;;;;;;;6.20;2.30;;;6.90;99.90;;;;;;5053731;28;20420;-75
2021/03/05 12:25:43;;;;;;;3.33;1.52;;;7.10;99.90;;;;;;5054258;28;20551;-77
2021/03/05 12:28:10;;;;;;;3.45;1.40;;;7.20;99.90;;;;;;5053267;28;20437;-77
2021/03/05 12:30:37;;;;;;;2.90;1.20;;;7.30;99.90;;;;;;5054953;28;20437;-78
2021/03/05 12:33:04;;;;;;;3.95;1.73;;;7.50;99.90;;;;;;5054370;28;20432;-76
2021/03/05 12:35:35;;;;;;;4.38;1.73;;;7.10;99.90;;;;;;5053753;28;20438;-76
2021/03/05 12:38:02;;;;;;;4.10;1.40;;;7.00;99.90;;;;;;5053900;28;20418;-78
2021/03/05 12:40:28;;;;;;;5.03;1.60;;;6.90;99.90;;;;;;5055397;28;20618;-76
2021/03/05 12:42:56;;;;;;;3.95;1.55;;;6.90;99.90;;;;;;5054141;28;20439;-78
2021/03/05 12:45:24;;;;;;;5.57;2.20;;;6.70;99.90;;;;;;5054496;28;20456;-76
2021/03/05 12:47:52;;;;;;;4.13;1.50;;;6.70;99.90;;;;;;5053392;28;20425;-76
2021/03/05 12:50:22;;;;;;;4.68;1.60;;;6.80;99.90;;;;;;5053845;28;20783;-75
2021/03/05 12:52:49;;;;;;;4.60;1.90;;;6.80;99.90;;;;;;5052545;28;20425;-74
2021/03/05 12:55:18;;;;;;;4.50;2.00;;;6.70;99.90;;;;;;5046773;28;20496;-74
2021/03/05 12:57:45;;;;;;;3.40;1.33;;;6.60;99.90;;;;;;5050796;28;20734;-75
2021/03/05 13:00:13;;;;;;;3.20;1.50;;;7.00;99.90;;;;;;5051274;28;20732;-76
2021/03/05 13:02:43;;;;;;;5.72;1.60;;;7.20;99.90;;;;;;5050426;28;20435;-78
2021/03/05 13:05:11;;;;;;;4.13;1.63;;;7.30;99.90;;;;;;5053942;28;20424;-76
2021/03/05 13:07:38;;;;;;;2.63;1.52;;;7.50;99.90;;;;;;5053531;28;20429;-76
2021/03/05 13:10:09;;;;;;;2.95;1.30;;;7.50;99.90;;;;;;5054648;28;20437;-76
2021/03/05 13:12:36;;;;;;;3.20;1.60;;;7.50;99.90;;;;;;5054064;28;20845;-76